createdAt,value
2016-04-21T00:00:31.552Z,0
2016-04-21T00:01:31.305Z,0
2016-04-21T00:02:31.464Z,0
2016-04-21T00:03:31.451Z,0
2016-04-21T00:04:31.313Z,0
2016-04-21T00:05:31.488Z,0
2016-04-21T00:06:31.474Z,0
2016-04-21T00:07:31.477Z,0
2016-04-21T00:08:31.480Z,0
2016-04-21T00:09:31.514Z,0
2016-04-21T00:10:31.502Z,0
2016-04-21T00:11:31.519Z,0
2016-04-21T00:12:31.522Z,0
2016-04-21T00:13:31.525Z,0
2016-04-21T00:14:31.543Z,0
2016-04-21T00:15:31.546Z,0
2016-04-21T00:16:31.548Z,0
2016-04-21T00:17:31.551Z,0
2016-04-21T00:18:31.569Z,0
2016-04-21T00:19:31.572Z,0
2016-04-21T00:20:31.575Z,0
2016-04-21T00:21:31.593Z,0
2016-04-21T00:22:31.580Z,0
2016-04-21T00:23:31.598Z,0
2016-04-21T00:24:31.617Z,0
2016-04-21T00:25:31.603Z,0
2016-04-21T00:26:31.637Z,0
2016-04-21T00:27:31.640Z,0
2016-04-21T00:28:31.659Z,0
2016-04-21T00:29:31.646Z,0
2016-04-21T00:30:31.648Z,0
2016-04-21T00:31:31.651Z,0
2016-04-21T00:32:31.669Z,0
2016-04-21T00:33:32.172Z,0
2016-04-21T00:34:31.659Z,0
2016-04-21T00:35:31.677Z,0
2016-04-21T00:36:31.697Z,0
2016-04-21T00:37:31.683Z,0
2016-04-21T00:38:31.685Z,0
2016-04-21T00:39:31.720Z,0
2016-04-21T00:40:31.738Z,0
2016-04-21T00:41:31.709Z,0
2016-04-21T00:42:31.727Z,0
2016-04-21T00:43:31.746Z,0
2016-04-21T00:44:31.733Z,0
2016-04-21T00:45:31.767Z,0
2016-04-21T00:46:31.754Z,0
2016-04-21T00:47:31.757Z,0
2016-04-21T00:48:31.774Z,0
2016-04-21T00:49:31.777Z,0
2016-04-21T00:50:31.796Z,0
2016-04-21T00:51:31.782Z,0
2016-04-21T00:52:31.786Z,0
2016-04-21T00:53:31.804Z,0
2016-04-21T00:54:31.807Z,0
2016-04-21T00:55:31.826Z,0
2016-04-21T00:56:31.828Z,0
2016-04-21T00:57:31.815Z,0
2016-04-21T00:58:31.817Z,0
2016-04-21T00:59:31.851Z,0
2016-04-21T01:00:31.854Z,0
2016-04-21T01:01:31.857Z,0
2016-04-21T01:02:31.875Z,0
2016-04-21T01:03:31.894Z,0
2016-04-21T01:04:31.896Z,0
2016-04-21T01:05:31.944Z,0
2016-04-21T01:06:32.009Z,0
2016-04-21T01:07:32.040Z,0
2016-04-21T01:08:32.088Z,0
2016-04-21T01:09:32.173Z,0
2016-04-21T01:10:32.177Z,0
2016-04-21T01:11:32.181Z,0
2016-04-21T01:12:32.215Z,0
2016-04-21T01:13:32.250Z,0
2016-04-21T01:14:32.249Z,0
2016-04-21T01:15:32.289Z,0
2016-04-21T01:16:32.282Z,0
2016-04-21T01:17:32.306Z,0
2016-04-21T01:18:32.299Z,0
2016-04-21T01:19:32.322Z,0
2016-04-21T01:20:31.609Z,0
2016-04-21T01:21:32.363Z,0
2016-04-21T01:22:32.341Z,0
2016-04-21T01:23:32.361Z,0
2016-04-21T01:24:32.397Z,0
2016-04-21T01:25:32.370Z,0
2016-04-21T01:26:32.389Z,0
2016-04-21T01:27:32.393Z,0
2016-04-21T01:28:32.396Z,0
2016-04-21T01:29:32.414Z,0
2016-04-21T01:30:32.433Z,0
2016-04-21T01:31:32.420Z,0
2016-04-21T01:32:32.423Z,0
2016-04-21T01:33:32.567Z,0
2016-04-21T01:34:32.445Z,0
2016-04-21T01:35:32.432Z,0
2016-04-21T01:36:32.482Z,0
2016-04-21T01:37:32.468Z,0
2016-04-21T01:38:32.457Z,0
2016-04-21T01:39:32.490Z,0
2016-04-21T01:40:32.477Z,0
2016-04-21T01:41:32.511Z,0
2016-04-21T01:42:32.482Z,0
2016-04-21T01:43:32.500Z,0
2016-04-21T01:44:32.519Z,0
2016-04-21T01:45:32.522Z,0
2016-04-21T01:46:32.509Z,0
2016-04-21T01:47:32.528Z,0
2016-04-21T01:48:32.530Z,0
2016-04-21T01:49:32.533Z,0
2016-04-21T01:50:32.550Z,0
2016-04-21T01:51:32.569Z,0
2016-04-21T01:52:32.416Z,0
2016-04-21T01:53:32.559Z,0
2016-04-21T01:54:32.609Z,0
2016-04-21T01:55:32.596Z,0
2016-04-21T01:56:32.583Z,0
2016-04-21T01:57:32.601Z,0
2016-04-21T01:58:32.604Z,0
2016-04-21T01:59:32.606Z,0
2016-04-21T02:00:32.609Z,0
2016-04-21T02:01:32.627Z,0
2016-04-21T02:02:32.615Z,0
2016-04-21T02:03:32.633Z,0
2016-04-21T02:04:32.651Z,0
2016-04-21T02:05:32.685Z,0
2016-04-21T02:06:32.703Z,0
2016-04-21T02:07:32.738Z,0
2016-04-21T02:08:32.709Z,0
2016-04-21T02:09:32.743Z,0
2016-04-21T02:10:32.714Z,0
2016-04-21T02:11:32.717Z,0
2016-04-21T02:12:32.719Z,0
2016-04-21T02:13:32.754Z,0
2016-04-21T02:14:32.741Z,0
2016-04-21T02:15:32.728Z,0
2016-04-21T02:16:32.745Z,0
2016-04-21T02:17:32.717Z,0
2016-04-21T02:18:32.750Z,0
2016-04-21T02:19:32.769Z,0
2016-04-21T02:20:32.757Z,0
2016-04-21T02:21:32.775Z,0
2016-04-21T02:22:32.777Z,0
2016-04-21T02:23:32.796Z,0
2016-04-21T02:24:32.784Z,0
2016-04-21T02:25:32.833Z,0
2016-04-21T02:26:32.820Z,0
2016-04-21T02:27:32.838Z,0
2016-04-21T02:28:32.810Z,0
2016-04-21T02:29:32.844Z,0
2016-04-21T02:30:32.830Z,0
2016-04-21T02:31:32.833Z,0
2016-04-21T02:32:32.866Z,0
2016-04-21T02:33:32.838Z,0
2016-04-21T02:34:32.872Z,0
2016-04-21T02:35:32.874Z,0
2016-04-21T02:36:32.878Z,0
2016-04-21T02:37:32.880Z,0
2016-04-21T02:38:32.899Z,0
2016-04-21T02:39:32.871Z,0
2016-04-21T02:40:32.920Z,0
2016-04-21T02:41:32.876Z,0
2016-04-21T02:42:32.893Z,0
2016-04-21T02:43:32.912Z,0
2016-04-21T02:44:32.946Z,0
2016-04-21T02:45:32.917Z,0
2016-04-21T02:46:32.937Z,0
2016-04-21T02:47:32.954Z,0
2016-04-21T02:48:32.957Z,0
2016-04-21T02:49:32.959Z,0
2016-04-21T02:50:32.978Z,0
2016-04-21T02:51:32.965Z,0
2016-04-21T02:52:32.983Z,0
2016-04-21T02:53:32.986Z,0
2016-04-21T02:54:33.005Z,0
2016-04-21T02:55:32.991Z,0
2016-04-21T02:56:33.025Z,0
2016-04-21T02:57:33.027Z,0
2016-04-21T02:58:33.031Z,0
2016-04-21T02:59:33.033Z,0
2016-04-21T03:00:33.036Z,0
2016-04-21T03:01:33.055Z,0
2016-04-21T03:02:33.041Z,0
2016-04-21T03:03:33.060Z,0
2016-04-21T03:04:33.047Z,0
2016-04-21T03:05:33.080Z,0
2016-04-21T03:06:33.068Z,0
2016-04-21T03:07:33.085Z,0
2016-04-21T03:08:33.073Z,0
2016-04-21T03:09:33.092Z,0
2016-04-21T03:10:33.094Z,0
2016-04-21T03:11:33.113Z,0
2016-04-21T03:12:33.115Z,0
2016-04-21T03:13:33.102Z,0
2016-04-21T03:14:33.121Z,0
2016-04-21T03:15:33.123Z,0
2016-04-21T03:16:33.157Z,0
2016-04-21T03:17:33.003Z,0
2016-04-21T03:18:33.162Z,0
2016-04-21T03:19:33.150Z,0
2016-04-21T03:20:33.152Z,0
2016-04-21T03:21:33.175Z,0
2016-04-21T03:22:33.166Z,0
2016-04-21T03:23:33.232Z,0
2016-04-21T03:24:33.187Z,0
2016-04-21T03:25:33.206Z,0
2016-04-21T03:26:33.193Z,0
2016-04-21T03:27:33.211Z,0
2016-04-21T03:28:33.199Z,0
2016-04-21T03:29:33.232Z,0
2016-04-21T03:30:33.219Z,0
2016-04-21T03:31:33.237Z,0
2016-04-21T03:32:33.240Z,0
2016-04-21T03:33:33.228Z,0
2016-04-21T03:34:33.261Z,0
2016-04-21T03:35:33.264Z,0
2016-04-21T03:36:33.267Z,0
2016-04-21T03:37:33.301Z,0
2016-04-21T03:38:33.194Z,0
2016-04-21T03:39:33.291Z,0
2016-04-21T03:40:33.277Z,0
2016-04-21T03:41:33.311Z,0
2016-04-21T03:42:33.314Z,0
2016-04-21T03:43:33.317Z,0
2016-04-21T03:44:33.319Z,0
2016-04-21T03:45:33.338Z,0
2016-04-21T03:46:33.340Z,0
2016-04-21T03:47:33.344Z,0
2016-04-21T03:48:33.346Z,0
2016-04-21T03:49:33.349Z,0
2016-04-21T03:50:33.351Z,0
2016-04-21T03:51:33.354Z,0
2016-04-21T03:52:33.403Z,0
2016-04-21T03:53:33.438Z,0
2016-04-21T03:54:33.377Z,0
2016-04-21T03:55:33.380Z,0
2016-04-21T03:56:33.415Z,0
2016-04-21T03:57:33.385Z,0
2016-04-21T03:58:33.435Z,0
2016-04-21T03:59:33.422Z,4
2016-04-21T04:00:33.440Z,4
2016-04-21T04:01:33.428Z,4
2016-04-21T04:02:33.446Z,0
2016-04-21T04:03:33.480Z,4
2016-04-21T04:04:33.451Z,4
2016-04-21T04:05:33.470Z,4
2016-04-21T04:06:33.472Z,8
2016-04-21T04:07:33.491Z,4
2016-04-21T04:08:33.524Z,4
2016-04-21T04:09:33.465Z,8
2016-04-21T04:10:33.483Z,8
2016-04-21T04:11:33.486Z,8
2016-04-21T04:12:33.504Z,8
2016-04-21T04:13:33.491Z,12
2016-04-21T04:14:33.540Z,12
2016-04-21T04:15:33.512Z,12
2016-04-21T04:16:33.530Z,12
2016-04-21T04:17:33.518Z,12
2016-04-21T04:18:33.521Z,16
2016-04-21T04:19:33.569Z,16
2016-04-21T04:20:33.572Z,16
2016-04-21T04:21:33.560Z,20
2016-04-21T04:22:33.563Z,20
2016-04-21T04:23:33.487Z,24
2016-04-21T04:24:33.568Z,24
2016-04-21T04:25:33.601Z,28
2016-04-21T04:26:33.604Z,24
2016-04-21T04:27:33.607Z,32
2016-04-21T04:28:33.625Z,32
2016-04-21T04:29:33.613Z,32
2016-04-21T04:30:33.631Z,32
2016-04-21T04:31:33.602Z,36
2016-04-21T04:32:33.651Z,36
2016-04-21T04:33:33.623Z,40
2016-04-21T04:34:33.641Z,40
2016-04-21T04:35:33.660Z,44
2016-04-21T04:36:33.678Z,48
2016-04-21T04:37:33.681Z,52
2016-04-21T04:38:33.684Z,52
2016-04-21T04:39:33.686Z,56
2016-04-21T04:40:33.673Z,60
2016-04-21T04:41:33.707Z,64
2016-04-21T04:42:33.694Z,64
2016-04-21T04:43:33.728Z,68
2016-04-21T04:44:33.700Z,72
2016-04-21T04:45:33.718Z,76
2016-04-21T04:46:33.736Z,80
2016-04-21T04:47:33.785Z,80
2016-04-21T04:48:33.727Z,88
2016-04-21T04:49:33.760Z,92
2016-04-21T04:50:33.794Z,100
2016-04-21T04:51:33.780Z,112
2016-04-21T04:52:33.783Z,128
2016-04-21T04:53:33.802Z,132
2016-04-21T04:54:33.774Z,132
2016-04-21T04:55:33.777Z,124
2016-04-21T04:56:33.794Z,120
2016-04-21T04:57:33.844Z,116
2016-04-21T04:58:33.831Z,116
2016-04-21T04:59:33.834Z,116
2016-04-21T05:00:33.804Z,120
2016-04-21T05:01:33.840Z,120
2016-04-21T05:02:33.826Z,120
2016-04-21T05:03:33.845Z,124
2016-04-21T05:04:33.847Z,124
2016-04-21T05:05:33.865Z,128
2016-04-21T05:06:33.867Z,128
2016-04-21T05:07:33.855Z,132
2016-04-21T05:08:33.859Z,136
2016-04-21T05:09:33.861Z,136
2016-04-21T05:10:33.879Z,136
2016-04-21T05:11:33.913Z,136
2016-04-21T05:12:33.931Z,140
2016-04-21T05:13:33.902Z,144
2016-04-21T05:14:33.921Z,140
2016-04-21T05:15:33.908Z,144
2016-04-21T05:16:33.942Z,148
2016-04-21T05:17:33.929Z,144
2016-04-21T05:18:33.932Z,148
2016-04-21T05:19:33.950Z,152
2016-04-21T05:20:33.938Z,152
2016-04-21T05:21:33.971Z,152
2016-04-21T05:22:33.958Z,152
2016-04-21T05:23:33.976Z,156
2016-04-21T05:24:33.979Z,152
2016-04-21T05:25:33.966Z,156
2016-04-21T05:26:33.999Z,156
2016-04-21T05:27:34.018Z,160
2016-04-21T05:28:34.021Z,156
2016-04-21T05:29:34.008Z,160
2016-04-21T05:30:34.027Z,160
2016-04-21T05:31:34.029Z,160
2016-04-21T05:32:34.032Z,164
2016-04-21T05:33:34.165Z,160
2016-04-21T05:34:34.794Z,164
2016-04-21T05:35:33.732Z,164
2016-04-21T05:36:35.156Z,164
2016-04-21T05:37:34.087Z,168
2016-04-21T05:38:34.059Z,168
2016-04-21T05:39:34.077Z,164
2016-04-21T05:40:34.080Z,168
2016-04-21T05:41:34.067Z,168
2016-04-21T05:42:34.100Z,168
2016-04-21T05:43:34.120Z,172
2016-04-21T05:44:34.106Z,168
2016-04-21T05:45:34.124Z,172
2016-04-21T05:46:34.112Z,172
2016-04-21T05:47:33.395Z,176
2016-04-21T05:48:34.133Z,172
2016-04-21T05:49:34.183Z,172
2016-04-21T05:50:34.138Z,176
2016-04-21T05:51:34.141Z,176
2016-04-21T05:52:34.143Z,176
2016-04-21T05:53:34.194Z,176
2016-04-21T05:54:34.164Z,180
2016-04-21T05:55:34.182Z,176
2016-04-21T05:56:34.233Z,180
2016-04-21T05:57:34.188Z,180
2016-04-21T05:58:34.190Z,180
2016-04-21T05:59:34.194Z,180
2016-04-21T06:00:34.227Z,180
2016-04-21T06:01:34.199Z,184
2016-04-21T06:02:34.061Z,184
2016-04-21T06:03:34.204Z,188
2016-04-21T06:04:34.238Z,184
2016-04-21T06:05:34.085Z,188
2016-04-21T06:06:34.274Z,188
2016-04-21T06:07:34.262Z,188
2016-04-21T06:08:34.279Z,188
2016-04-21T06:09:34.267Z,192
2016-04-21T06:10:34.317Z,188
2016-04-21T06:11:34.288Z,192
2016-04-21T06:12:34.290Z,192
2016-04-21T06:13:34.278Z,192
2016-04-21T06:14:34.328Z,192
2016-04-21T06:15:34.315Z,196
2016-04-21T06:16:34.317Z,192
2016-04-21T06:17:34.336Z,196
2016-04-21T06:18:34.323Z,196
2016-04-21T06:19:34.341Z,196
2016-04-21T06:20:34.359Z,200
2016-04-21T06:21:34.346Z,200
2016-04-21T06:22:34.396Z,200
2016-04-21T06:23:34.352Z,204
2016-04-21T06:24:34.385Z,204
2016-04-21T06:25:34.372Z,204
2016-04-21T06:26:34.375Z,204
2016-04-21T06:27:34.378Z,208
2016-04-21T06:28:34.412Z,208
2016-04-21T06:29:34.258Z,204
2016-04-21T06:30:34.418Z,204
2016-04-21T06:31:34.421Z,208
2016-04-21T06:32:34.439Z,208
2016-04-21T06:33:34.441Z,208
2016-04-21T06:34:34.460Z,208
2016-04-21T06:35:34.446Z,208
2016-04-21T06:36:34.480Z,208
2016-04-21T06:37:34.452Z,208
2016-04-21T06:38:34.502Z,208
2016-04-21T06:39:34.473Z,208
2016-04-21T06:40:34.491Z,208
2016-04-21T06:41:34.479Z,208
2016-04-21T06:42:34.481Z,208
2016-04-21T06:43:34.483Z,208
2016-04-21T06:44:34.549Z,208
2016-04-21T06:45:34.520Z,208
2016-04-21T06:46:34.507Z,208
2016-04-21T06:47:34.542Z,208
2016-04-21T06:48:34.513Z,208
2016-04-21T06:49:34.547Z,208
2016-04-21T06:50:34.534Z,204
2016-04-21T06:51:34.568Z,208
2016-04-21T06:52:34.555Z,208
2016-04-21T06:53:34.558Z,212
2016-04-21T06:54:34.561Z,212
2016-04-21T06:55:34.594Z,212
2016-04-21T06:56:34.581Z,216
2016-04-21T06:57:34.600Z,216
2016-04-21T06:58:34.602Z,220
2016-04-21T06:59:34.605Z,224
2016-04-21T07:00:34.592Z,224
2016-04-21T07:01:34.626Z,228
2016-04-21T07:02:34.629Z,228
2016-04-21T07:03:34.616Z,228
2016-04-21T07:04:34.649Z,232
2016-04-21T07:05:34.652Z,232
2016-04-21T07:06:34.640Z,236
2016-04-21T07:07:34.673Z,236
2016-04-21T07:08:34.660Z,240
2016-04-21T07:09:34.663Z,240
2016-04-21T07:10:34.665Z,240
2016-04-21T07:11:34.715Z,244
2016-04-21T07:12:34.687Z,248
2016-04-21T07:13:34.705Z,248
2016-04-21T07:14:34.692Z,248
2016-04-21T07:15:34.710Z,252
2016-04-21T07:16:34.744Z,256
2016-04-21T07:17:34.747Z,256
2016-04-21T07:18:34.734Z,260
2016-04-21T07:19:34.736Z,264
2016-04-21T07:20:34.771Z,264
2016-04-21T07:21:34.773Z,268
2016-04-21T07:22:34.775Z,272
2016-04-21T07:23:34.779Z,272
2016-04-21T07:24:34.767Z,276
2016-04-21T07:25:34.800Z,276
2016-04-21T07:26:34.772Z,284
2016-04-21T07:27:34.790Z,288
2016-04-21T07:28:34.808Z,344
2016-04-21T07:29:34.795Z,356
2016-04-21T07:30:34.813Z,364
2016-04-21T07:31:34.816Z,368
2016-04-21T07:32:34.835Z,372
2016-04-21T07:33:34.837Z,376
2016-04-21T07:34:34.840Z,380
2016-04-21T07:35:34.842Z,384
2016-04-21T07:36:34.845Z,388
2016-04-21T07:37:34.849Z,392
2016-04-21T07:38:34.866Z,396
2016-04-21T07:39:34.868Z,400
2016-04-21T07:40:34.841Z,404
2016-04-21T07:41:34.890Z,404
2016-04-21T07:42:34.877Z,408
2016-04-21T07:43:34.880Z,412
2016-04-21T07:44:34.882Z,416
2016-04-21T07:45:34.901Z,416
2016-04-21T07:46:34.903Z,420
2016-04-21T07:47:34.906Z,424
2016-04-21T07:48:34.737Z,428
2016-04-21T07:49:34.895Z,432
2016-04-21T07:50:34.929Z,436
2016-04-21T07:51:34.917Z,436
2016-04-21T07:52:34.935Z,436
2016-04-21T07:53:34.937Z,440
2016-04-21T07:54:34.909Z,444
2016-04-21T07:55:34.959Z,444
2016-04-21T07:56:34.930Z,444
2016-04-21T07:57:34.948Z,448
2016-04-21T07:58:34.936Z,448
2016-04-21T07:59:34.828Z,452
2016-04-21T08:00:34.956Z,452
2016-04-21T08:01:34.990Z,456
2016-04-21T08:02:34.978Z,456
2016-04-21T08:03:34.980Z,460
2016-04-21T08:04:34.966Z,460
2016-04-21T08:05:34.814Z,456
2016-04-21T08:06:34.988Z,456
2016-04-21T08:07:35.007Z,456
2016-04-21T08:08:35.010Z,460
2016-04-21T08:09:34.980Z,464
2016-04-21T08:10:35.030Z,464
2016-04-21T08:11:35.001Z,464
2016-04-21T08:12:34.863Z,464
2016-04-21T08:13:35.007Z,464
2016-04-21T08:14:35.026Z,468
2016-04-21T08:15:35.013Z,468
2016-04-21T08:16:35.046Z,472
2016-04-21T08:17:35.018Z,472
2016-04-21T08:18:35.020Z,476
2016-04-21T08:19:35.040Z,476
2016-04-21T08:20:35.042Z,480
2016-04-21T08:21:35.029Z,480
2016-04-21T08:22:35.062Z,480
2016-04-21T08:23:35.064Z,484
2016-04-21T08:24:35.084Z,404
2016-04-21T08:25:35.055Z,412
2016-04-21T08:26:35.105Z,412
2016-04-21T08:27:35.122Z,416
2016-04-21T08:28:35.079Z,420
2016-04-21T08:29:35.066Z,420
2016-04-21T08:30:35.083Z,424
2016-04-21T08:31:35.087Z,424
2016-04-21T08:32:35.105Z,424
2016-04-21T08:33:35.124Z,432
2016-04-21T08:34:35.423Z,432
2016-04-21T08:35:35.129Z,432
2016-04-21T08:36:35.116Z,436
2016-04-21T08:37:35.134Z,436
2016-04-21T08:38:35.121Z,440
2016-04-21T08:39:35.124Z,444
2016-04-21T08:40:35.126Z,444
2016-04-21T08:41:35.161Z,444
2016-04-21T08:42:35.132Z,444
2016-04-21T08:43:35.151Z,448
2016-04-21T08:44:35.200Z,448
2016-04-21T08:45:35.156Z,448
2016-04-21T08:46:35.173Z,452
2016-04-21T08:47:35.177Z,452
2016-04-21T08:48:35.196Z,456
2016-04-21T08:49:35.198Z,456
2016-04-21T08:50:35.200Z,460
2016-04-21T08:51:35.203Z,464
2016-04-21T08:52:35.211Z,464
2016-04-21T08:53:35.229Z,464
2016-04-21T08:54:35.216Z,464
2016-04-21T08:55:35.219Z,468
2016-04-21T08:56:35.252Z,468
2016-04-21T08:57:35.224Z,472
2016-04-21T08:58:35.242Z,472
2016-04-21T08:59:35.260Z,472
2016-04-21T09:00:35.294Z,476
2016-04-21T09:01:35.267Z,476
2016-04-21T09:02:35.285Z,480
2016-04-21T09:03:35.287Z,480
2016-04-21T09:04:35.290Z,480
2016-04-21T09:05:35.277Z,488
2016-04-21T09:06:35.311Z,484
2016-04-21T09:07:35.313Z,488
2016-04-21T09:08:35.332Z,492
2016-04-21T09:09:34.569Z,492
2016-04-21T09:10:35.321Z,496
2016-04-21T09:11:35.324Z,500
2016-04-21T09:12:35.342Z,496
2016-04-21T09:13:35.361Z,500
2016-04-21T09:14:35.333Z,500
2016-04-21T09:15:35.351Z,500
2016-04-21T09:16:35.384Z,504
2016-04-21T09:17:35.387Z,504
2016-04-21T09:18:35.389Z,504
2016-04-21T09:19:35.393Z,508
2016-04-21T09:20:35.426Z,508
2016-04-21T09:21:35.382Z,512
2016-04-21T09:22:35.384Z,512
2016-04-21T09:23:35.403Z,516
2016-04-21T09:24:35.437Z,516
2016-04-21T09:25:35.472Z,516
2016-04-21T09:26:35.428Z,520
2016-04-21T09:27:35.446Z,524
2016-04-21T09:28:35.448Z,524
2016-04-21T09:29:35.467Z,528
2016-04-21T09:30:35.531Z,528
2016-04-21T09:31:35.488Z,532
2016-04-21T09:32:35.458Z,528
2016-04-21T09:33:35.524Z,536
2016-04-21T09:34:35.480Z,536
2016-04-21T09:35:35.483Z,540
2016-04-21T09:36:35.516Z,544
2016-04-21T09:37:35.504Z,540
2016-04-21T09:38:35.506Z,544
2016-04-21T09:39:35.369Z,548
2016-04-21T09:40:35.574Z,548
2016-04-21T09:41:35.546Z,548
2016-04-21T09:42:35.579Z,552
2016-04-21T09:43:35.566Z,556
2016-04-21T09:44:35.554Z,556
2016-04-21T09:45:35.571Z,556
2016-04-21T09:46:35.590Z,556
2016-04-21T09:47:35.437Z,560
2016-04-21T09:48:35.579Z,580
2016-04-21T09:49:35.615Z,584
2016-04-21T09:50:35.601Z,584
2016-04-21T09:51:35.478Z,584
2016-04-21T09:52:35.623Z,588
2016-04-21T09:53:35.640Z,592
2016-04-21T09:54:35.706Z,592
2016-04-21T09:55:35.646Z,592
2016-04-21T09:56:35.664Z,600
2016-04-21T09:57:35.651Z,592
2016-04-21T09:58:35.669Z,600
2016-04-21T09:59:35.673Z,600
2016-04-21T10:00:35.691Z,604
2016-04-21T10:01:35.694Z,604
2016-04-21T10:02:35.665Z,604
2016-04-21T10:03:35.558Z,604
2016-04-21T10:04:35.716Z,612
2016-04-21T10:05:35.704Z,612
2016-04-21T10:06:35.707Z,612
2016-04-21T10:07:35.741Z,616
2016-04-21T10:08:35.727Z,616
2016-04-21T10:09:35.465Z,620
2016-04-21T10:10:35.781Z,620
2016-04-21T10:11:35.828Z,620
2016-04-21T10:12:35.874Z,624
2016-04-21T10:13:35.921Z,624
2016-04-21T10:14:35.983Z,628
2016-04-21T10:15:36.041Z,632
2016-04-21T10:16:36.044Z,636
2016-04-21T10:17:36.062Z,636
2016-04-21T10:18:36.097Z,636
2016-04-21T10:19:36.100Z,636
2016-04-21T10:20:36.126Z,640
2016-04-21T10:21:36.134Z,636
2016-04-21T10:22:36.159Z,640
2016-04-21T10:23:36.214Z,640
2016-04-21T10:24:36.238Z,644
2016-04-21T10:25:36.166Z,640
2016-04-21T10:26:36.185Z,648
2016-04-21T10:27:36.206Z,644
2016-04-21T10:28:36.195Z,644
2016-04-21T10:29:36.216Z,652
2016-04-21T10:30:36.220Z,656
2016-04-21T10:31:36.254Z,664
2016-04-21T10:32:36.257Z,656
2016-04-21T10:33:36.245Z,652
2016-04-21T10:34:36.295Z,656
2016-04-21T10:35:36.252Z,656
2016-04-21T10:36:36.301Z,660
2016-04-21T10:37:36.290Z,664
2016-04-21T10:38:36.292Z,664
2016-04-21T10:39:36.342Z,672
2016-04-21T10:40:36.188Z,668
2016-04-21T10:41:36.301Z,672
2016-04-21T10:42:36.319Z,652
2016-04-21T10:43:36.321Z,648
2016-04-21T10:44:36.340Z,652
2016-04-21T10:45:36.359Z,660
2016-04-21T10:46:36.329Z,664
2016-04-21T10:47:36.349Z,660
2016-04-21T10:48:36.351Z,664
2016-04-21T10:49:36.401Z,664
2016-04-21T10:50:36.354Z,660
2016-04-21T10:51:36.373Z,660
2016-04-21T10:52:36.406Z,656
2016-04-21T10:53:36.393Z,660
2016-04-21T10:54:36.412Z,664
2016-04-21T10:55:36.430Z,668
2016-04-21T10:56:36.261Z,672
2016-04-21T10:57:36.419Z,672
2016-04-21T10:58:36.438Z,672
2016-04-21T10:59:36.441Z,676
2016-04-21T11:00:36.443Z,676
2016-04-21T11:01:36.461Z,672
2016-04-21T11:02:36.464Z,680
2016-04-21T11:03:36.452Z,680
2016-04-21T11:04:36.469Z,680
2016-04-21T11:05:36.503Z,688
2016-04-21T11:06:36.491Z,688
2016-04-21T11:07:36.509Z,688
2016-04-21T11:08:36.496Z,692
2016-04-21T11:09:36.530Z,696
2016-04-21T11:10:36.501Z,696
2016-04-21T11:11:36.551Z,696
2016-04-21T11:12:36.538Z,696
2016-04-21T11:13:36.557Z,692
2016-04-21T11:14:36.559Z,700
2016-04-21T11:15:36.562Z,700
2016-04-21T11:16:36.565Z,696
2016-04-21T11:17:36.583Z,692
2016-04-21T11:18:36.600Z,700
2016-04-21T11:19:36.603Z,704
2016-04-21T11:20:36.590Z,704
2016-04-21T11:21:36.609Z,696
2016-04-21T11:22:36.642Z,712
2016-04-21T11:23:36.662Z,724
2016-04-21T11:24:36.633Z,740
2016-04-21T11:25:36.651Z,760
2016-04-21T11:26:36.638Z,772
2016-04-21T11:27:36.672Z,792
2016-04-21T11:28:36.675Z,816
2016-04-21T11:29:36.678Z,832
2016-04-21T11:30:36.695Z,844
2016-04-21T11:31:36.714Z,860
2016-04-21T11:32:36.700Z,872
2016-04-21T11:33:36.703Z,884
2016-04-21T11:34:36.722Z,896
2016-04-21T11:35:36.725Z,896
2016-04-21T11:36:36.758Z,888
2016-04-21T11:37:36.730Z,880
2016-04-21T11:38:36.732Z,868
2016-04-21T11:39:36.751Z,852
2016-04-21T11:40:36.785Z,840
2016-04-21T11:41:36.757Z,820
2016-04-21T11:42:36.807Z,792
2016-04-21T11:43:36.809Z,776
2016-04-21T11:44:36.796Z,764
2016-04-21T11:45:36.815Z,760
2016-04-21T11:46:36.833Z,752
2016-04-21T11:47:36.835Z,752
2016-04-21T11:48:36.822Z,744
2016-04-21T11:49:36.840Z,736
2016-04-21T11:50:36.859Z,728
2016-04-21T11:51:36.862Z,720
2016-04-21T11:52:36.880Z,716
2016-04-21T11:53:36.851Z,712
2016-04-21T11:54:36.884Z,716
2016-04-21T11:55:36.872Z,712
2016-04-21T11:56:36.922Z,720
2016-04-21T11:57:36.925Z,728
2016-04-21T11:58:36.928Z,744
2016-04-21T11:59:36.914Z,760
2016-04-21T12:00:36.948Z,784
2016-04-21T12:01:36.935Z,812
2016-04-21T12:02:36.938Z,832
2016-04-21T12:03:36.956Z,856
2016-04-21T12:04:36.991Z,876
2016-04-21T12:05:36.978Z,864
2016-04-21T12:06:36.996Z,856
2016-04-21T12:07:36.999Z,860
2016-04-21T12:08:37.016Z,872
2016-04-21T12:09:37.004Z,872
2016-04-21T12:10:37.038Z,880
2016-04-21T12:11:37.024Z,896
2016-04-21T12:12:37.058Z,916
2016-04-21T12:13:37.046Z,924
2016-04-21T12:14:37.048Z,916
2016-04-21T12:15:37.051Z,904
2016-04-21T12:16:37.085Z,868
2016-04-21T12:17:37.072Z,844
2016-04-21T12:18:37.090Z,812
2016-04-21T12:19:37.093Z,808
2016-04-21T12:20:37.111Z,808
2016-04-21T12:21:37.098Z,848
2016-04-21T12:22:37.132Z,864
2016-04-21T12:23:37.150Z,872
2016-04-21T12:24:37.154Z,864
2016-04-21T12:25:37.140Z,892
2016-04-21T12:26:37.175Z,872
2016-04-21T12:27:37.161Z,896
2016-04-21T12:28:37.196Z,928
2016-04-21T12:29:37.198Z,940
2016-04-21T12:30:37.200Z,904
2016-04-21T12:31:37.188Z,916
2016-04-21T12:32:37.237Z,928
2016-04-21T12:33:37.209Z,940
2016-04-21T12:34:37.227Z,928
2016-04-21T12:35:37.245Z,952
2016-04-21T12:36:37.263Z,964
2016-04-21T12:37:37.250Z,964
2016-04-21T12:38:37.269Z,932
2016-04-21T12:39:37.303Z,968
2016-04-21T12:40:37.305Z,940
2016-04-21T12:41:37.293Z,932
2016-04-21T12:42:37.327Z,892
2016-04-21T12:43:37.314Z,876
2016-04-21T12:44:37.348Z,844
2016-04-21T12:45:37.335Z,892
2016-04-21T12:46:37.337Z,940
2016-04-21T12:47:37.340Z,896
2016-04-21T12:48:37.374Z,928
2016-04-21T12:49:37.361Z,940
2016-04-21T12:50:37.411Z,960
2016-04-21T12:51:37.382Z,924
2016-04-21T12:52:37.401Z,964
2016-04-21T12:53:37.419Z,964
2016-04-21T12:54:37.421Z,932
2016-04-21T12:55:37.409Z,936
2016-04-21T12:56:37.411Z,948
2016-04-21T12:57:37.445Z,888
2016-04-21T12:58:37.432Z,876
2016-04-21T12:59:37.451Z,824
2016-04-21T13:00:37.470Z,912
2016-04-21T13:01:37.456Z,944
2016-04-21T13:02:37.506Z,972
2016-04-21T13:03:37.509Z,976
2016-04-21T13:04:37.511Z,956
2016-04-21T13:05:37.497Z,948
2016-04-21T13:06:37.563Z,956
2016-04-21T13:07:37.535Z,956
2016-04-21T13:08:37.538Z,984
2016-04-21T13:09:37.555Z,988
2016-04-21T13:10:37.558Z,944
2016-04-21T13:11:37.546Z,900
2016-04-21T13:12:37.564Z,872
2016-04-21T13:13:37.582Z,856
2016-04-21T13:14:37.599Z,840
2016-04-21T13:15:37.603Z,812
2016-04-21T13:16:37.605Z,796
2016-04-21T13:17:37.655Z,780
2016-04-21T13:18:37.627Z,760
2016-04-21T13:19:37.645Z,872
2016-04-21T13:20:37.648Z,904
2016-04-21T13:21:37.666Z,864
2016-04-21T13:22:37.669Z,820
2016-04-21T13:23:37.672Z,832
2016-04-21T13:24:37.690Z,800
2016-04-21T13:25:37.692Z,828
2016-04-21T13:26:37.711Z,824
2016-04-21T13:27:37.713Z,816
2016-04-21T13:28:37.701Z,816
2016-04-21T13:29:37.750Z,864
2016-04-21T13:30:37.737Z,880
2016-04-21T13:31:37.756Z,824
2016-04-21T13:32:37.759Z,716
2016-04-21T13:33:37.776Z,744
2016-04-21T13:34:37.779Z,712
2016-04-21T13:35:37.782Z,720
2016-04-21T13:36:37.800Z,804
2016-04-21T13:37:37.819Z,848
2016-04-21T13:38:37.852Z,852
2016-04-21T13:39:37.824Z,832
2016-04-21T13:40:37.827Z,848
2016-04-21T13:41:37.830Z,864
2016-04-21T13:42:37.864Z,860
2016-04-21T13:43:37.866Z,808
2016-04-21T13:44:37.884Z,812
2016-04-21T13:45:37.873Z,840
2016-04-21T13:46:37.876Z,816
2016-04-21T13:47:37.879Z,820
2016-04-21T13:48:37.929Z,820
2016-04-21T13:49:37.901Z,776
2016-04-21T13:50:37.934Z,728
2016-04-21T13:51:37.951Z,700
2016-04-21T13:52:37.939Z,676
2016-04-21T13:53:37.973Z,644
2016-04-21T13:54:37.975Z,584
2016-04-21T13:55:37.962Z,580
2016-04-21T13:56:37.965Z,596
2016-04-21T13:57:37.984Z,612
2016-04-21T13:58:38.017Z,644
2016-04-21T13:59:38.005Z,676
2016-04-21T14:00:38.022Z,660
2016-04-21T14:01:38.011Z,628
2016-04-21T14:02:38.028Z,588
2016-04-21T14:03:38.038Z,592
2016-04-21T14:04:38.057Z,612